METAR Data
IDs: Format: Raw Decoded Include TAF

Data at: 0320 UTC 29 May 2022

METAR for:KSPB (Scappoose Ind Airpar, OR, US)
Text:KSPB 290253Z AUTO 17005KT 10SM -RA OVC033 13/10 A2965 RMK AO2 SLP040 P0000 60011 T01330100 53017
Temperature: 13.3°C ( 56°F)
Dewpoint: 10.0°C ( 50°F) [RH = 80%]
Pressure (altimeter):29.65 inches Hg (1004.1 mb) [Sea level pressure: 1004.0 mb]
Winds:from the S (170 degrees) at 6 MPH (5 knots; 2.6 m/s)
Visibility:10 or more sm (16+ km)
Ceiling:3300 feet AGL
Clouds: overcast cloud deck at 3300 feet AGL
Weather:-RA (light rain)
QC Flag:automated observation with no human augmentation